createdAt,value
2022-08-08T00:02:30.266Z,9.57
2022-08-08T00:04:54.140Z,9.90
2022-08-08T00:07:40.745Z,10.87
2022-08-08T00:10:15.994Z,10.10
2022-08-08T00:12:56.811Z,10.00
2022-08-08T00:15:56.832Z,10.47
2022-08-08T00:18:23.802Z,11.63
2022-08-08T00:20:57.586Z,11.00
2022-08-08T00:23:42.986Z,11.43
2022-08-08T00:26:26.419Z,10.70
2022-08-08T00:29:07.879Z,8.73
2022-08-08T00:32:33.010Z,13.27
2022-08-08T00:35:18.459Z,10.43
2022-08-08T00:38:02.937Z,11.37
2022-08-08T00:41:06.948Z,11.13
2022-08-08T00:44:02.292Z,9.63
2022-08-08T00:47:23.069Z,10.77
2022-08-08T00:50:29.957Z,10.60
2022-08-08T00:53:15.690Z,12.00
2022-08-08T00:56:20.832Z,11.37
2022-08-08T00:59:44.047Z,10.43
2022-08-08T01:03:58.026Z,10.20
2022-08-08T01:06:32.393Z,9.50
2022-08-08T01:09:35.971Z,11.40
2022-08-08T01:12:31.266Z,9.03
2022-08-08T01:15:43.979Z,10.73
2022-08-08T01:18:52.627Z,12.13
2022-08-08T01:22:07.210Z,9.10
2022-08-08T01:25:16.855Z,9.90
2022-08-08T01:28:15.804Z,12.20
2022-08-08T01:32:13.031Z,11.40
2022-08-08T01:35:11.159Z,10.93
2022-08-08T01:38:04.605Z,11.23
2022-08-08T01:40:38.455Z,12.17
2022-08-08T01:43:16.574Z,9.43
2022-08-08T01:45:56.458Z,12.27
2022-08-08T01:48:46.145Z,10.07
2022-08-08T01:52:03.687Z,11.80
2022-08-08T01:55:15.718Z,11.23
2022-08-08T01:58:13.164Z,9.13
2022-08-08T02:00:35.172Z,10.73
2022-08-08T02:03:56.876Z,9.47
2022-08-08T02:06:31.804Z,9.07
2022-08-08T02:09:16.002Z,8.47
2022-08-08T02:11:59.953Z,9.13
2022-08-08T02:14:55.583Z,10.93
2022-08-08T02:17:45.716Z,10.90
2022-08-08T02:21:02.717Z,10.23
2022-08-08T02:23:20.946Z,10.27
2022-08-08T02:26:02.536Z,8.70
2022-08-08T02:28:51.726Z,11.10
2022-08-08T02:31:59.402Z,9.10
2022-08-08T02:35:07.476Z,11.07
2022-08-08T02:37:56.351Z,9.10
2022-08-08T02:40:45.225Z,9.53
2022-08-08T02:44:43.014Z,10.23
2022-08-08T02:47:01.399Z,10.10
2022-08-08T02:50:05.749Z,10.47
2022-08-08T02:53:10.890Z,9.33
2022-08-08T02:56:23.087Z,13.43
2022-08-08T02:59:57.221Z,8.70
2022-08-08T03:02:55.614Z,10.60
2022-08-08T03:06:07.240Z,9.23
2022-08-08T03:09:08.677Z,9.33
2022-08-08T03:12:36.441Z,10.47
2022-08-08T03:16:09.505Z,8.70
2022-08-08T03:19:00.284Z,9.33
2022-08-08T03:21:54.942Z,9.07
2022-08-08T03:24:20.995Z,8.30
2022-08-08T03:26:53.462Z,9.43
2022-08-08T03:29:26.933Z,10.23
2022-08-08T03:32:30.604Z,8.50
2022-08-08T03:35:01.798Z,9.87
2022-08-08T03:37:59.823Z,9.63
2022-08-08T03:40:30.601Z,11.37
2022-08-08T03:43:15.819Z,8.40
2022-08-08T03:46:06.639Z,8.60
2022-08-08T03:49:09.883Z,9.37
2022-08-08T03:51:47.073Z,10.33
2022-08-08T03:54:15.556Z,7.57
2022-08-08T03:58:30.523Z,8.23
2022-08-08T04:00:02.663Z,8.70
2022-08-08T04:02:52.282Z,8.67
2022-08-08T04:05:27.346Z,8.83
2022-08-08T04:07:58.340Z,8.23
2022-08-08T04:10:32.159Z,8.60
2022-08-08T04:13:03.742Z,8.43
2022-08-08T04:16:05.463Z,7.97
2022-08-08T04:18:44.700Z,7.70
2022-08-08T04:21:22.900Z,10.47
2022-08-08T04:24:05.379Z,8.87
2022-08-08T04:26:57.385Z,10.13
2022-08-08T04:29:37.117Z,9.70
2022-08-08T04:32:07.160Z,7.57
2022-08-08T04:34:49.447Z,10.47
2022-08-08T04:37:31.817Z,7.53
2022-08-08T04:40:05.243Z,7.90
2022-08-08T04:42:36.780Z,10.00
2022-08-08T04:45:07.818Z,7.53
2022-08-08T04:47:46.309Z,7.80
2022-08-08T04:50:24.752Z,7.67
2022-08-08T04:53:00.972Z,7.73
2022-08-08T04:55:47.292Z,7.23
2022-08-08T04:58:22.529Z,8.03
2022-08-08T05:01:11.065Z,7.73
2022-08-08T05:04:11.048Z,7.97
2022-08-08T05:06:29.049Z,7.60
2022-08-08T05:09:02.343Z,8.97
2022-08-08T05:11:39.575Z,6.80
2022-08-08T05:14:12.783Z,6.90
2022-08-08T05:17:10.624Z,7.83
2022-08-08T05:20:09.691Z,7.13
2022-08-08T05:22:27.933Z,7.23
2022-08-08T05:25:03.241Z,6.97
2022-08-08T05:27:33.378Z,7.30
2022-08-08T05:30:04.218Z,7.23
2022-08-08T05:32:36.440Z,5.40
2022-08-08T05:35:05.814Z,6.50
2022-08-08T05:37:52.645Z,5.63
2022-08-08T05:40:28.660Z,7.43
2022-08-08T05:43:02.778Z,5.73
2022-08-08T05:45:42.976Z,6.60
2022-08-08T05:48:28.577Z,5.83
2022-08-08T05:51:13.439Z,5.13
2022-08-08T05:54:25.873Z,6.03
2022-08-08T05:56:42.714Z,6.00
2022-08-08T05:59:58.615Z,5.73
2022-08-08T06:02:38.719Z,6.33
2022-08-08T06:05:34.533Z,5.17
2022-08-08T06:08:09.618Z,5.40
2022-08-08T06:10:41.065Z,5.30
2022-08-08T06:13:09.858Z,6.00
2022-08-08T06:15:50.651Z,5.07
2022-08-08T06:18:24.025Z,5.40
2022-08-08T06:20:59.486Z,6.37
2022-08-08T06:23:52.573Z,6.27
2022-08-08T06:26:38.539Z,5.80
2022-08-08T06:29:26.002Z,5.77
2022-08-08T06:32:10.445Z,6.80
2022-08-08T06:34:56.209Z,4.63
2022-08-08T06:37:40.355Z,4.10
2022-08-08T06:40:16.636Z,4.10
2022-08-08T06:42:57.289Z,5.37
2022-08-08T06:45:25.743Z,4.20
2022-08-08T06:48:00.691Z,4.70
2022-08-08T06:50:33.331Z,5.00
2022-08-08T06:53:09.991Z,4.07
2022-08-08T06:55:43.511Z,3.53
2022-08-08T06:58:18.751Z,5.27
2022-08-08T07:00:51.490Z,7.13
2022-08-08T07:03:52.642Z,3.93
2022-08-08T07:06:26.908Z,6.30
2022-08-08T07:09:02.970Z,3.43
2022-08-08T07:11:46.040Z,5.03
2022-08-08T07:14:22.543Z,6.20
2022-08-08T07:17:03.206Z,3.27
2022-08-08T07:19:44.554Z,3.50
2022-08-08T07:22:23.523Z,4.93
2022-08-08T07:24:59.792Z,4.60
2022-08-08T07:27:47.428Z,4.73
2022-08-08T07:30:25.964Z,4.17
2022-08-08T07:32:54.831Z,5.37
2022-08-08T07:35:28.427Z,3.67
2022-08-08T07:38:10.301Z,3.93
2022-08-08T07:40:50.553Z,4.23
2022-08-08T07:43:35.119Z,2.97
2022-08-08T07:46:23.332Z,2.67
2022-08-08T07:48:52.504Z,3.30
2022-08-08T07:51:24.067Z,2.20
2022-08-08T07:54:27.001Z,2.43
2022-08-08T07:57:10.874Z,3.77
2022-08-08T07:59:52.325Z,2.40
2022-08-08T08:02:36.909Z,3.07
2022-08-08T08:05:15.636Z,2.63
2022-08-08T08:07:46.052Z,2.93
2022-08-08T08:10:18.254Z,5.20
2022-08-08T08:13:25.215Z,2.90
2022-08-08T08:27:02.684Z,3.70
2022-08-08T08:29:50.908Z,3.43
2022-08-08T08:32:31.860Z,3.23
2022-08-08T08:35:06.526Z,3.27
2022-08-08T08:37:43.899Z,2.67
2022-08-08T08:40:23.608Z,2.80
2022-08-08T08:42:55.322Z,2.20
2022-08-08T08:45:26.899Z,2.97
2022-08-08T08:47:58.153Z,3.83
2022-08-08T08:50:32.904Z,2.17
2022-08-08T08:53:27.934Z,3.77
2022-08-08T08:56:02.188Z,3.73
2022-08-08T08:58:33.574Z,2.57
2022-08-08T09:01:10.362Z,3.53
2022-08-08T09:03:46.787Z,1.80
2022-08-08T09:06:28.853Z,2.73
2022-08-08T09:09:07.349Z,2.30
2022-08-08T09:12:01.688Z,2.90
2022-08-08T09:15:12.523Z,2.67
2022-08-08T09:18:18.794Z,2.17
2022-08-08T09:21:58.842Z,3.43
2022-08-08T09:25:11.579Z,2.77
2022-08-08T09:28:35.346Z,2.17
2022-08-08T09:31:56.593Z,2.93
2022-08-08T09:35:07.854Z,1.97
2022-08-08T09:38:17.707Z,2.10
2022-08-08T09:41:23.730Z,1.60
2022-08-08T09:44:34.275Z,2.27
2022-08-08T09:48:03.899Z,1.87
2022-08-08T09:51:05.948Z,2.27
2022-08-08T09:54:19.658Z,2.73
2022-08-08T10:05:31.124Z,3.27
2022-08-08T10:08:37.455Z,5.33
2022-08-08T10:12:27.930Z,3.20
2022-08-08T10:15:17.910Z,3.93
2022-08-08T10:18:25.770Z,3.13
2022-08-08T10:21:32.787Z,3.47
2022-08-08T10:24:39.362Z,4.10
2022-08-08T10:27:44.930Z,4.20
2022-08-08T10:30:59.796Z,4.33
2022-08-08T10:34:19.064Z,3.53
2022-08-08T10:37:26.260Z,4.27
2022-08-08T10:40:33.289Z,3.33
2022-08-08T10:43:38.713Z,2.80
2022-08-08T10:46:46.228Z,4.40
2022-08-08T10:50:02.258Z,2.33
2022-08-08T10:53:12.629Z,3.03
2022-08-08T10:56:27.862Z,3.37
2022-08-08T10:59:39.598Z,4.27
2022-08-08T11:02:46.622Z,3.70
2022-08-08T11:06:00.583Z,2.27
2022-08-08T11:09:15.270Z,3.20
2022-08-08T11:12:28.565Z,2.80
2022-08-08T11:15:35.145Z,2.70
2022-08-08T11:18:58.345Z,3.27
2022-08-08T11:22:04.429Z,2.23
2022-08-08T11:25:13.780Z,2.90
2022-08-08T11:28:20.268Z,2.40
2022-08-08T11:31:27.589Z,3.10
2022-08-08T11:35:08.920Z,2.90
2022-08-08T11:38:35.087Z,2.43
2022-08-08T11:41:37.525Z,3.10
2022-08-08T11:44:44.025Z,2.60
2022-08-08T11:48:02.422Z,2.60
2022-08-08T11:51:30.778Z,2.57
2022-08-08T11:54:44.597Z,3.00
2022-08-08T11:57:51.810Z,1.60
2022-08-08T12:01:12.142Z,2.60
2022-08-08T12:04:21.668Z,1.90
2022-08-08T12:07:29.120Z,2.23
2022-08-08T12:10:37.543Z,2.03
2022-08-08T12:14:03.831Z,2.13
2022-08-08T12:17:15.106Z,1.63
2022-08-08T12:20:23.301Z,2.87
2022-08-08T12:23:40.340Z,2.60
2022-08-08T12:26:50.108Z,2.40
2022-08-08T12:29:55.741Z,5.03
2022-08-08T12:33:02.136Z,1.87
2022-08-08T12:36:13.299Z,1.87
2022-08-08T12:39:18.938Z,1.73
2022-08-08T12:42:33.662Z,1.60
2022-08-08T12:45:58.544Z,2.20
2022-08-08T12:49:42.873Z,2.50
2022-08-08T12:52:32.670Z,1.73
2022-08-08T12:56:06.078Z,1.63
2022-08-08T12:59:07.840Z,1.60
2022-08-08T13:02:13.343Z,1.20
2022-08-08T13:05:26.415Z,3.10
2022-08-08T13:08:53.840Z,1.80
2022-08-08T13:12:28.114Z,1.50
2022-08-08T13:15:28.782Z,1.80
2022-08-08T13:18:48.882Z,1.63
2022-08-08T13:22:04.879Z,2.23
2022-08-08T13:25:12.789Z,1.20
2022-08-08T13:28:20.778Z,1.53
2022-08-08T13:31:29.502Z,2.77
2022-08-08T13:34:36.566Z,2.17
2022-08-08T13:38:05.542Z,2.40
2022-08-08T13:41:16.412Z,2.67
2022-08-08T13:44:23.696Z,2.50
2022-08-08T13:47:34.390Z,1.63
2022-08-08T13:50:51.014Z,1.63
2022-08-08T13:54:01.207Z,3.40
2022-08-08T13:57:08.612Z,1.10
2022-08-08T14:00:13.896Z,1.87
2022-08-08T14:03:52.253Z,2.17
2022-08-08T14:06:47.405Z,1.50
2022-08-08T14:10:04.874Z,1.13
2022-08-08T14:13:30.942Z,1.60
2022-08-08T14:16:39.646Z,1.73
2022-08-08T14:19:57.699Z,1.37
2022-08-08T14:23:21.568Z,1.47
2022-08-08T14:26:38.385Z,1.60
2022-08-08T14:29:43.962Z,2.30
2022-08-08T14:32:53.295Z,4.33
2022-08-08T14:35:59.411Z,2.37
2022-08-08T14:39:11.648Z,2.33
2022-08-08T14:42:18.483Z,3.03
2022-08-08T14:45:33.325Z,2.77
2022-08-08T14:48:59.157Z,2.93
2022-08-08T14:52:04.577Z,1.23
2022-08-08T14:55:10.799Z,1.97
2022-08-08T14:58:20.142Z,1.53
2022-08-08T15:01:27.956Z,2.17
2022-08-08T15:04:43.542Z,1.60
2022-08-08T15:07:59.810Z,1.67
2022-08-08T15:11:06.693Z,2.27
2022-08-08T15:14:13.846Z,2.57
2022-08-08T15:17:22.134Z,2.30
2022-08-08T15:20:28.659Z,2.13
2022-08-08T15:23:34.914Z,1.80
2022-08-08T15:26:41.797Z,5.00
2022-08-08T15:29:48.411Z,2.83
2022-08-08T15:32:54.082Z,2.07
2022-08-08T15:35:59.753Z,1.40
2022-08-08T15:39:06.335Z,3.40
2022-08-08T15:42:24.034Z,1.40
2022-08-08T15:49:04.127Z,3.13
2022-08-08T15:52:12.362Z,1.73
2022-08-08T15:55:19.659Z,1.97
2022-08-08T15:58:31.812Z,4.73
2022-08-08T16:01:40.496Z,2.23
2022-08-08T16:05:17.560Z,1.17
2022-08-08T16:08:24.323Z,1.67
2022-08-08T16:13:03.134Z,2.43
2022-08-08T16:14:57.634Z,1.67
2022-08-08T16:18:12.185Z,1.70
2022-08-08T16:21:26.213Z,2.00
2022-08-08T16:24:32.632Z,1.70
2022-08-08T16:27:38.834Z,1.70
2022-08-08T16:30:44.273Z,1.43
2022-08-08T16:33:59.212Z,1.90
2022-08-08T16:37:05.293Z,1.60
2022-08-08T16:40:12.340Z,2.13
2022-08-08T16:43:24.318Z,1.38
2022-08-08T16:46:42.793Z,1.52
2022-08-08T16:49:51.556Z,1.98
2022-08-08T16:55:04.914Z,2.35
2022-08-08T16:56:23.730Z,2.10
2022-08-08T16:59:52.055Z,1.15
2022-08-08T17:02:59.158Z,1.75
2022-08-08T17:06:36.495Z,1.48
2022-08-08T17:09:45.009Z,2.45
2022-08-08T17:12:52.824Z,1.50
2022-08-08T17:15:59.454Z,3.08
2022-08-08T17:19:08.283Z,1.10
2022-08-08T17:22:13.881Z,1.40
2022-08-08T17:25:20.338Z,1.60
2022-08-08T17:28:45.980Z,1.50
2022-08-08T17:31:51.721Z,1.60
2022-08-08T17:35:52.042Z,1.60
2022-08-08T17:38:22.629Z,1.80
2022-08-08T17:41:30.653Z,1.83
2022-08-08T17:44:48.997Z,1.40
2022-08-08T17:47:55.232Z,3.10
2022-08-08T17:51:01.195Z,1.50
2022-08-08T17:54:09.181Z,2.37
2022-08-08T17:57:20.007Z,2.43
2022-08-08T18:00:30.697Z,2.47
2022-08-08T18:03:36.767Z,3.23
2022-08-08T18:06:45.808Z,1.53
2022-08-08T18:09:51.569Z,2.10
2022-08-08T18:12:57.422Z,2.17
2022-08-08T18:16:05.997Z,3.70
2022-08-08T18:19:13.082Z,2.30
2022-08-08T18:22:50.023Z,1.40
2022-08-08T18:25:47.214Z,1.60
2022-08-08T18:28:55.325Z,2.83
2022-08-08T18:32:03.585Z,2.10
2022-08-08T18:35:09.774Z,2.53
2022-08-08T18:38:21.140Z,2.13
2022-08-08T18:41:51.944Z,2.80
2022-08-08T18:45:08.937Z,2.03
2022-08-08T18:51:54.128Z,1.97
2022-08-08T18:55:10.567Z,2.63
2022-08-08T18:58:17.089Z,5.10
2022-08-08T19:02:25.733Z,2.37
2022-08-08T19:04:53.526Z,3.03
2022-08-08T19:08:03.070Z,2.00
2022-08-08T19:11:10.066Z,2.90
2022-08-08T19:14:23.061Z,3.83
2022-08-08T19:17:47.879Z,1.90
2022-08-08T19:20:54.544Z,4.67
2022-08-08T19:24:00.280Z,2.80
2022-08-08T19:27:07.308Z,3.53
2022-08-08T19:30:24.095Z,2.23
2022-08-08T19:33:39.626Z,3.90
2022-08-08T19:36:59.207Z,2.20
2022-08-08T19:40:05.415Z,3.73
2022-08-08T19:43:12.421Z,3.80
2022-08-08T19:46:22.545Z,3.43
2022-08-08T19:49:37.867Z,3.23
2022-08-08T19:52:54.793Z,3.47
2022-08-08T19:56:02.738Z,4.97
2022-08-08T19:59:09.229Z,5.30
2022-08-08T20:02:15.399Z,4.47
2022-08-08T20:06:13.538Z,6.10
2022-08-08T20:08:49.928Z,4.57
2022-08-08T20:11:55.913Z,8.77
2022-08-08T20:15:02.390Z,5.93
2022-08-08T20:18:20.245Z,2.80
2022-08-08T20:21:38.256Z,7.73
2022-08-08T20:24:43.859Z,4.33
2022-08-08T20:27:54.192Z,6.67
2022-08-08T20:31:00.103Z,4.60
2022-08-08T20:34:29.621Z,6.80
2022-08-08T20:37:53.361Z,6.03
2022-08-08T20:41:00.246Z,6.03
2022-08-08T20:44:05.910Z,6.43
2022-08-08T20:47:15.810Z,5.10
2022-08-08T20:50:33.680Z,4.43
2022-08-08T20:54:00.757Z,4.77
2022-08-08T20:57:17.231Z,4.70
2022-08-08T21:00:24.467Z,4.20
2022-08-08T21:03:30.242Z,4.17
2022-08-08T21:06:53.267Z,4.40
2022-08-08T21:10:07.744Z,4.50
2022-08-08T21:13:18.208Z,5.93
2022-08-08T21:16:28.993Z,4.13
2022-08-08T21:19:45.164Z,4.20
2022-08-08T21:22:51.929Z,3.43
2022-08-08T21:25:57.737Z,5.17
2022-08-08T21:29:03.764Z,5.10
2022-08-08T21:32:14.285Z,4.03
2022-08-08T21:36:15.086Z,4.43
2022-08-08T21:38:50.855Z,5.00
2022-08-08T21:41:59.308Z,3.47
2022-08-08T21:45:44.851Z,4.60
2022-08-08T21:48:41.317Z,4.97
2022-08-08T21:54:34.598Z,5.17
2022-08-08T21:55:24.335Z,5.83
2022-08-08T21:58:43.124Z,5.57
2022-08-08T22:02:04.310Z,3.17
2022-08-08T22:05:10.881Z,4.37
2022-08-08T22:08:24.165Z,2.93
2022-08-08T22:11:58.760Z,2.80
2022-08-08T22:14:55.394Z,2.90
2022-08-08T22:18:02.935Z,4.17
2022-08-08T22:21:21.777Z,3.87
2022-08-08T22:24:31.842Z,4.17
2022-08-08T22:28:00.865Z,3.43
2022-08-08T22:31:03.634Z,4.60
2022-08-08T22:34:13.478Z,3.20
2022-08-08T22:37:27.586Z,3.53
2022-08-08T22:40:48.920Z,3.47
2022-08-08T22:44:02.265Z,4.73
2022-08-08T22:47:17.832Z,3.33
2022-08-08T22:50:26.740Z,4.53
2022-08-08T22:54:31.523Z,2.93
2022-08-08T22:56:58.664Z,3.10
2022-08-08T23:00:04.771Z,5.77
2022-08-08T23:03:22.819Z,3.90
2022-08-08T23:06:28.462Z,3.47
2022-08-08T23:09:39.354Z,3.87
2022-08-08T23:12:59.758Z,4.60
2022-08-08T23:16:41.851Z,3.70
2022-08-08T23:19:32.240Z,4.57
2022-08-08T23:22:38.283Z,3.00
2022-08-08T23:25:48.794Z,6.50
2022-08-08T23:28:58.682Z,5.43
2022-08-08T23:32:04.703Z,6.70
2022-08-08T23:35:12.592Z,4.07
2022-08-08T23:38:26.336Z,4.70
2022-08-08T23:41:31.738Z,4.27
2022-08-08T23:44:52.284Z,2.77
2022-08-08T23:49:06.770Z,3.30
2022-08-08T23:52:05.152Z,3.00
2022-08-08T23:55:07.146Z,2.63
2022-08-08T23:58:37.619Z,3.73
